Pagrindinis puslapis
METAR-TAF:

METAR-TAF

Oro uostai :

Blue Grass Airport

Leksingtonas, Kentukis, Jungtinės Amerikos Valstijos

platuma: 38-02-27N, ilguma: 084-36-21W, Aukštis: 298 m

Dabartinis oras

Ataskaita buvo paskelbta 27 minutes, ne 03:54 UTC
Vėjas 4 kt iš Šiaurės
Temperatūra 16°C
Drėgmė 63%
Slėgis 1022 hPa
Matomumas: 16.1 km
Giedras dangus

METAR: KLEX 310354Z 01004KT 10SM CLR 16/09 A3017 RMK AO2 SLP209 T01560094

Laikas: 00:21 (04:21 UTC)

Prognozė

Ataskaita buvo paskelbta 5 valandos ir 1 minutes, ne 23:20 UTC
Prognozė galioja nuo 31 metu 00 UTC su 31 metu 24 UTC
Vėjas 8 kt iš Šiaurės/Šiaurės Vakarų
Matomumas: 10 km
Su prošvaistėmis ne aukštis 25000 ft
Nuo 31 metu 0600 UTC
Vėjas 4 kt iš Šiaurės/Šiaurės Rytų
Matomumas: 10 km
Išsisklaidę debesys ne aukštis 25000 ft
Nuo 31 metu 1300 UTC
Vėjas 9 kt iš Šiaurės/Šiaurės Rytų
Matomumas: 10 km
Giedras dangus

TAF: KLEX 302320Z 3100/3124 33008KT P6SM BKN250 FM310600 02004KT P6SM SCT250 FM311300 03009KT P6SM SKC

Orai ataskaitas ir orų prognozės (METAR, TAF).

turimą stotys yra geltonos ir raudonos taškus žemėlapyje.

Perkelti pele per norėdami pamatyti stoties vardą.

Tada spustelėkite, norėdami matyti oro stebėjimo ir prognozės.

Norėdami pakeisti žemėlapį: spustelėkite ant žalios mygtukų su juodo kryžiaus žemyn,; žalią mygtuką su brūkšneliu, jei norite nutolinti; arba žalių rodyklių gretimoms žemėlapius.


METAR-TAF: